createdAt,value
2023-02-03T00:01:41.653Z,8.30
2023-02-03T00:06:45.367Z,5.40
2023-02-03T00:11:48.363Z,9.40
2023-02-03T00:16:51.476Z,7.90
2023-02-03T00:21:54.374Z,8.70
2023-02-03T00:26:57.492Z,6.10
2023-02-03T00:32:00.586Z,4.00
2023-02-03T00:37:03.801Z,7.60
2023-02-03T00:42:07.215Z,10.20
2023-02-03T00:47:10.223Z,6.90
2023-02-03T00:52:13.236Z,5.80
2023-02-03T00:57:16.341Z,7.90
2023-02-03T01:02:19.403Z,10.90
2023-02-03T01:07:22.658Z,7.20
2023-02-03T01:12:25.767Z,4.80
2023-02-03T01:17:28.880Z,7.60
2023-02-03T01:22:32.048Z,4.80
2023-02-03T01:27:35.325Z,7.60
2023-02-03T01:32:38.408Z,6.70
2023-02-03T01:37:41.414Z,6.80
2023-02-03T01:42:44.316Z,6.80
2023-02-03T01:47:54.391Z,8.10
2023-02-03T01:53:11.017Z,6.60
2023-02-03T01:58:28.494Z,8.20
2023-02-03T02:03:46.825Z,7.60
2023-02-03T02:08:52.070Z,8.50
2023-02-03T02:14:00.122Z,8.10
2023-02-03T02:19:21.144Z,8.80
2023-02-03T02:24:51.996Z,10.70
2023-02-03T02:30:43.511Z,10.80
2023-02-03T02:36:06.620Z,7.90
2023-02-03T02:41:40.040Z,7.10
2023-02-03T02:46:53.754Z,8.20
2023-02-03T02:52:00.197Z,11.20
2023-02-03T02:57:06.466Z,8.50
2023-02-03T03:02:11.861Z,10.40
2023-02-03T03:07:24.575Z,12.00
2023-02-03T03:12:37.912Z,10.10
2023-02-03T03:17:47.265Z,8.90
2023-02-03T03:22:56.432Z,10.00
2023-02-03T03:28:06.040Z,8.00
2023-02-03T03:33:09.864Z,10.30
2023-02-03T03:38:22.957Z,8.80
2023-02-03T03:43:31.233Z,13.80
2023-02-03T03:49:00.399Z,12.80
2023-02-03T03:54:10.005Z,15.70
2023-02-03T03:59:16.965Z,10.30
2023-02-03T04:04:21.345Z,14.00
2023-02-03T04:09:25.195Z,12.50
2023-02-03T04:14:30.556Z,19.20
2023-02-03T04:19:33.488Z,20.70
2023-02-03T04:24:36.605Z,20.50
2023-02-03T04:29:39.501Z,19.50
2023-02-03T04:34:42.506Z,16.50
2023-02-03T04:39:45.414Z,19.80
2023-02-03T04:44:48.826Z,11.70
2023-02-03T04:49:52.042Z,9.70
2023-02-03T04:54:55.260Z,10.80
2023-02-03T04:59:58.162Z,8.50
2023-02-03T05:05:01.056Z,8.60
2023-02-03T05:10:04.168Z,9.10
2023-02-03T05:15:07.644Z,15.60
2023-02-03T05:20:13.455Z,16.70
2023-02-03T05:25:16.463Z,19.70
2023-02-03T05:30:19.579Z,16.00
2023-02-03T05:35:22.685Z,23.70
2023-02-03T05:40:44.938Z,23.90
2023-02-03T05:45:47.914Z,19.70
2023-02-03T05:50:50.950Z,15.90
2023-02-03T05:55:54.162Z,14.70
2023-02-03T06:00:57.167Z,13.60
2023-02-03T06:06:00.385Z,19.70
2023-02-03T06:11:03.484Z,21.70
2023-02-03T06:16:06.799Z,24.10
2023-02-03T06:21:09.913Z,13.70
2023-02-03T06:26:13.119Z,12.10
2023-02-03T06:31:16.351Z,10.40
2023-02-03T06:36:19.550Z,13.90
2023-02-03T06:41:27.698Z,18.00
2023-02-03T06:46:31.099Z,23.20
2023-02-03T06:51:34.296Z,19.50
2023-02-03T06:56:37.718Z,33.60
2023-02-03T07:01:40.765Z,39.50
2023-02-03T07:06:43.943Z,27.90
2023-02-03T07:11:47.046Z,55.80
2023-02-03T07:16:50.185Z,75.30
2023-02-03T07:21:53.153Z,30.80
2023-02-03T07:26:56.057Z,31.80
2023-02-03T07:31:59.169Z,26.80
2023-02-03T07:37:02.507Z,22.30
2023-02-03T07:42:05.550Z,23.50
2023-02-03T07:47:08.616Z,32.70
2023-02-03T07:52:11.603Z,30.60
2023-02-03T07:57:14.716Z,31.00
2023-02-03T08:02:17.823Z,31.40
2023-02-03T08:07:20.930Z,23.00
2023-02-03T08:12:24.350Z,27.30
2023-02-03T08:17:27.353Z,28.40
2023-02-03T08:22:30.432Z,30.70
2023-02-03T08:27:33.471Z,26.10
2023-02-03T08:32:36.494Z,23.90
2023-02-03T08:37:39.488Z,30.30
2023-02-03T08:42:42.900Z,25.00
2023-02-03T08:47:46.003Z,36.00
2023-02-03T08:52:49.217Z,24.90
2023-02-03T08:57:52.327Z,16.60
2023-02-03T09:02:55.540Z,20.70
2023-02-03T09:07:58.870Z,25.00
2023-02-03T09:13:01.965Z,18.80
2023-02-03T09:18:05.256Z,21.50
2023-02-03T09:23:08.492Z,17.40
2023-02-03T09:28:11.780Z,25.40
2023-02-03T09:33:14.906Z,33.10
2023-02-03T09:38:18.026Z,30.40
2023-02-03T09:43:33.307Z,31.10
2023-02-03T09:48:44.168Z,26.50
2023-02-03T09:53:54.995Z,29.00
2023-02-03T09:58:58.302Z,31.20
2023-02-03T10:04:13.608Z,27.30
2023-02-03T10:09:28.989Z,32.90
2023-02-03T10:14:48.309Z,35.60
2023-02-03T10:20:01.627Z,29.10
2023-02-03T10:25:17.057Z,30.50
2023-02-03T10:30:21.844Z,62.10
2023-02-03T10:35:36.969Z,31.70
2023-02-03T10:40:40.197Z,31.20
2023-02-03T10:45:43.186Z,29.70
2023-02-03T10:50:49.362Z,27.20
2023-02-03T10:56:04.558Z,25.40
2023-02-03T11:01:07.911Z,26.40
2023-02-03T11:06:16.733Z,30.90
2023-02-03T11:11:25.454Z,28.20
2023-02-03T11:16:37.351Z,31.30
2023-02-03T11:21:43.961Z,31.40
2023-02-03T11:26:53.113Z,35.80
2023-02-03T11:31:59.736Z,30.40
2023-02-03T11:37:28.316Z,27.60
2023-02-03T11:42:31.428Z,29.80
2023-02-03T11:47:35.058Z,28.70
2023-02-03T11:53:04.469Z,25.70
2023-02-03T11:58:38.809Z,45.40
2023-02-03T12:03:58.488Z,30.50
2023-02-03T12:09:07.548Z,36.90
2023-02-03T12:14:55.410Z,41.30
2023-02-03T12:20:06.340Z,66.90
2023-02-03T12:25:29.176Z,31.70
2023-02-03T12:30:57.254Z,50.70
2023-02-03T12:36:09.835Z,40.90
2023-02-03T12:41:18.842Z,31.60
2023-02-03T12:46:38.232Z,37.90
2023-02-03T12:51:41.138Z,27.40
2023-02-03T12:56:50.286Z,23.00
2023-02-03T13:01:59.273Z,30.20
2023-02-03T13:07:09.417Z,25.70
2023-02-03T13:12:26.651Z,20.10
2023-02-03T13:17:38.262Z,18.90
2023-02-03T13:22:41.279Z,19.20
2023-02-03T13:27:59.677Z,21.80
2023-02-03T13:33:53.737Z,18.60
2023-02-03T13:38:59.527Z,16.50
2023-02-03T13:44:04.027Z,13.70
2023-02-03T13:49:09.107Z,16.20
2023-02-03T13:54:33.221Z,15.90
2023-02-03T13:59:45.212Z,17.70
2023-02-03T14:04:48.290Z,9.00
2023-02-03T14:10:12.734Z,9.50
2023-02-03T14:15:32.959Z,16.20
2023-02-03T14:20:43.340Z,13.10
2023-02-03T14:25:51.469Z,18.30
2023-02-03T14:31:05.809Z,14.30
2023-02-03T14:36:27.789Z,13.00
2023-02-03T14:41:33.861Z,13.60
2023-02-03T14:46:58.477Z,10.40
2023-02-03T14:52:09.180Z,9.20
2023-02-03T14:57:36.749Z,12.00
2023-02-03T15:03:12.022Z,9.30
2023-02-03T15:08:36.928Z,7.90
2023-02-03T15:13:39.904Z,11.60
2023-02-03T15:18:43.155Z,12.70
2023-02-03T15:23:49.485Z,8.30
2023-02-03T15:29:04.516Z,14.10
2023-02-03T15:34:43.258Z,7.60
2023-02-03T15:40:00.509Z,15.70
2023-02-03T15:45:23.881Z,12.20
2023-02-03T15:50:32.328Z,6.90
2023-02-03T15:55:45.480Z,11.40
2023-02-03T16:00:52.891Z,7.60
2023-02-03T16:05:56.216Z,13.00
2023-02-03T16:10:59.884Z,6.00
2023-02-03T16:16:40.292Z,9.20
2023-02-03T16:26:55.734Z,9.40
2023-02-03T16:32:18.148Z,8.30
2023-02-03T16:37:45.869Z,7.00
2023-02-03T16:43:07.725Z,11.00
2023-02-03T16:48:31.134Z,9.50
2023-02-03T16:53:34.529Z,9.00
2023-02-03T16:58:37.943Z,8.60
2023-02-03T17:03:41.161Z,8.00
2023-02-03T17:08:44.158Z,15.40
2023-02-03T17:13:48.374Z,9.30
2023-02-03T17:18:52.180Z,13.70
2023-02-03T17:23:55.494Z,9.50
2023-02-03T17:29:03.516Z,6.80
2023-02-03T17:34:06.872Z,9.70
2023-02-03T18:00:16.076Z,9.20
2023-02-03T18:05:19.775Z,9.80
2023-02-03T18:10:22.876Z,11.70
2023-02-03T18:15:25.984Z,9.10
2023-02-03T18:20:29.239Z,7.80
2023-02-03T18:25:35.472Z,9.20
2023-02-03T18:30:38.461Z,9.10
2023-02-03T18:35:41.865Z,9.40
2023-02-03T18:40:45.042Z,12.50
2023-02-03T18:45:48.257Z,9.40
2023-02-03T18:50:51.335Z,7.90
2023-02-03T18:55:54.336Z,12.00
2023-02-03T19:00:59.195Z,10.00
2023-02-03T19:06:09.053Z,12.80
2023-02-03T19:11:15.357Z,7.90
2023-02-03T19:16:18.660Z,9.00
2023-02-03T19:21:21.982Z,9.70
2023-02-03T19:26:25.203Z,13.50
2023-02-03T19:31:32.117Z,16.60
2023-02-03T19:36:35.303Z,14.40
2023-02-03T19:41:41.073Z,11.20
2023-02-03T19:46:44.115Z,18.30
2023-02-03T19:51:47.701Z,14.40
2023-02-03T19:56:50.864Z,15.10
2023-02-03T20:01:55.408Z,12.40
2023-02-03T20:07:00.021Z,15.30
2023-02-03T20:12:03.010Z,11.70
2023-02-03T20:17:07.759Z,16.40
2023-02-03T20:22:10.990Z,14.00
2023-02-03T20:27:14.172Z,21.60
2023-02-03T20:32:17.226Z,11.20
2023-02-03T20:37:20.190Z,16.60
2023-02-03T20:42:23.093Z,12.80
2023-02-03T20:47:26.419Z,12.60
2023-02-03T20:52:29.413Z,15.00
2023-02-03T20:57:33.147Z,15.20
2023-02-03T21:02:56.118Z,16.80
2023-02-03T21:07:59.745Z,15.80
2023-02-03T21:13:24.661Z,13.40
2023-02-03T21:18:39.524Z,12.40
2023-02-03T21:23:47.306Z,16.50
2023-02-03T21:29:01.573Z,13.00
2023-02-03T21:34:25.058Z,10.70
2023-02-03T21:39:35.153Z,13.50
2023-02-03T21:44:38.508Z,11.60
2023-02-03T21:49:42.025Z,11.20
2023-02-03T21:54:45.031Z,14.30
2023-02-03T21:59:49.471Z,12.20
2023-02-03T22:04:52.632Z,13.20
2023-02-03T22:09:55.691Z,12.10
2023-02-03T22:14:58.598Z,8.90
2023-02-03T22:20:01.493Z,9.50
2023-02-03T22:25:05.175Z,12.50
2023-02-03T22:30:10.524Z,14.20
2023-02-03T22:35:13.588Z,12.70
2023-02-03T22:40:17.620Z,13.90
2023-02-03T22:45:21.697Z,10.70
2023-02-03T22:50:34.613Z,10.50
2023-02-03T22:55:39.445Z,17.30
2023-02-03T23:00:42.549Z,12.90
2023-02-03T23:05:45.659Z,14.10
2023-02-03T23:10:48.761Z,19.90
2023-02-03T23:15:51.976Z,13.50
2023-02-03T23:20:55.293Z,14.10
2023-02-03T23:25:58.292Z,14.30
2023-02-03T23:31:01.587Z,12.50
2023-02-03T23:36:05.468Z,15.00
2023-02-03T23:41:08.440Z,16.70
2023-02-03T23:46:11.846Z,13.10
2023-02-03T23:51:14.960Z,11.40
2023-02-03T23:56:17.878Z,11.70
